Anthony, Florida
Current Conditions -  °F | °C
As of 8:50 AM on Thursday 30 Oct 2014 (Local Time) from KOCF Reporting Station
Few Clouds Few Clouds  
Wind Chill: 17°   Ceiling: Unl
Heat Index: 17°   Visibility: 10mi
Dew Point: 16°   Wind: 0mph
Humidity: 94%   Direction: NA
Pressure: 30"   Gusts: NA
Location:  29.29°N, 82.11°W
Report Text: KOCF 301250Z 00000KT 10SM FEW120 17/16 A3000
Loading
Personal Weather Stations






























Interactive Weather Map
Tropical Storm Tracking
New forecast layout! Learn more

10-Day Weather Forecast

Advertisements
Track Severe Weather on mobile